FFT2264 KLAX-KLAS
Flight info
| Callsign | FFT2264 |
|---|---|
| Flight time | 0h 43m |
| Altitude | 27000 |
| Route | ORCKA5 MISEN RNDRZ4 |
| Aircraft | A20N/M-SDE2E3FGHIRWXY/LB1 |
Departure
| Time | 2026-05-04 05:02 |
|---|---|
| Airport | Los Angeles International Airport (KLAX) |
Arrival
| Time | 2026-05-04 05:45 |
|---|---|
| Airport | Harry Reid International Airport (KLAS) |
| Time | Latitude | Longitude | Altitude | Speed | Heading |
|---|---|---|---|---|---|
| 2026-05-04 04:38 | 33.94127 | -118.41427 | 121 ft | 0 kts | 300° |
| 2026-05-04 04:49 | 33.94124 | -118.41420 | 121 ft | 2 kts | 300° |
| 2026-05-04 04:49 | 33.94116 | -118.41405 | 121 ft | 2 kts | 300° |
| 2026-05-04 04:50 | 33.94112 | -118.41395 | 121 ft | 2 kts | 300° |
| 2026-05-04 04:50 | 33.94107 | -118.41378 | 121 ft | 2 kts | 278° |
| 2026-05-04 04:50 | 33.94106 | -118.41361 | 121 ft | 2 kts | 262° |
| 2026-05-04 04:50 | 33.94111 | -118.41343 | 121 ft | 2 kts | 245° |
| 2026-05-04 04:51 | 33.94118 | -118.41328 | 121 ft | 2 kts | 227° |
| 2026-05-04 04:51 | 33.94130 | -118.41316 | 121 ft | 2 kts | 211° |
| 2026-05-04 04:51 | 33.94144 | -118.41309 | 121 ft | 2 kts | 194° |
| 2026-05-04 04:51 | 33.94157 | -118.41307 | 121 ft | 0 kts | 178° |
| 2026-05-04 04:52 | 33.94162 | -118.41307 | 121 ft | 0 kts | 173° |
| 2026-05-04 04:54 | 33.94147 | -118.41305 | 121 ft | 5 kts | 173° |
| 2026-05-04 04:54 | 33.94075 | -118.41294 | 122 ft | 15 kts | 173° |
| 2026-05-04 04:54 | 33.93955 | -118.41277 | 124 ft | 17 kts | 173° |
| 2026-05-04 04:54 | 33.93835 | -118.41261 | 127 ft | 16 kts | 175° |
| 2026-05-04 04:55 | 33.93759 | -118.41184 | 127 ft | 15 kts | 91° |
| 2026-05-04 04:55 | 33.93772 | -118.41049 | 127 ft | 16 kts | 83° |
| 2026-05-04 04:55 | 33.93787 | -118.40905 | 127 ft | 18 kts | 83° |
| 2026-05-04 04:55 | 33.93804 | -118.40745 | 127 ft | 20 kts | 83° |
| 2026-05-04 04:56 | 33.93823 | -118.40562 | 125 ft | 23 kts | 83° |
| 2026-05-04 04:56 | 33.93843 | -118.40362 | 121 ft | 24 kts | 83° |
| 2026-05-04 04:56 | 33.93863 | -118.40160 | 120 ft | 24 kts | 83° |
| 2026-05-04 04:56 | 33.93885 | -118.39957 | 116 ft | 25 kts | 82° |
| 2026-05-04 04:57 | 33.93907 | -118.39745 | 112 ft | 25 kts | 83° |
| 2026-05-04 04:57 | 33.93927 | -118.39531 | 110 ft | 25 kts | 84° |
| 2026-05-04 04:57 | 33.93950 | -118.39317 | 107 ft | 25 kts | 83° |
| 2026-05-04 04:57 | 33.93971 | -118.39106 | 106 ft | 25 kts | 83° |
| 2026-05-04 04:58 | 33.93992 | -118.38895 | 104 ft | 25 kts | 83° |
| 2026-05-04 04:58 | 33.94013 | -118.38687 | 104 ft | 24 kts | 83° |
| 2026-05-04 04:58 | 33.94035 | -118.38488 | 104 ft | 23 kts | 83° |
| 2026-05-04 04:58 | 33.94055 | -118.38287 | 101 ft | 24 kts | 84° |
| 2026-05-04 04:59 | 33.94073 | -118.38117 | 101 ft | 12 kts | 83° |
| 2026-05-04 04:59 | 33.94076 | -118.38034 | 101 ft | 0 kts | 115° |
| 2026-05-04 05:00 | 33.94076 | -118.38033 | 101 ft | 0 kts | 115° |
| 2026-05-04 05:00 | 33.94070 | -118.38023 | 101 ft | 3 kts | 131° |
| 2026-05-04 05:00 | 33.93979 | -118.38075 | 101 ft | 11 kts | 259° |
| 2026-05-04 05:01 | 33.93965 | -118.38196 | 101 ft | 32 kts | 262° |
| 2026-05-04 05:01 | 33.93907 | -118.38782 | 104 ft | 106 kts | 263° |
| 2026-05-04 05:01 | 33.93784 | -118.39909 | 145 ft | 160 kts | 263° |
| 2026-05-04 05:01 | 33.93672 | -118.41277 | 703 ft | 167 kts | 263° |
| 2026-05-04 05:02 | 33.93540 | -118.42636 | 1460 ft | 163 kts | 262° |
| 2026-05-04 05:02 | 33.93398 | -118.43977 | 2095 ft | 166 kts | 262° |
| 2026-05-04 05:02 | 33.93204 | -118.45412 | 2448 ft | 181 kts | 253° |
| 2026-05-04 05:02 | 33.92610 | -118.46794 | 2767 ft | 197 kts | 235° |
| 2026-05-04 05:03 | 33.91737 | -118.48144 | 3123 ft | 212 kts | 232° |
| 2026-05-04 05:03 | 33.90754 | -118.49602 | 3462 ft | 234 kts | 231° |
| 2026-05-04 05:04 | 33.87338 | -118.54414 | 5664 ft | 264 kts | 228° |
| 2026-05-04 05:04 | 33.85856 | -118.55706 | 6486 ft | 271 kts | 201° |
| 2026-05-04 05:04 | 33.83979 | -118.56001 | 7366 ft | 276 kts | 174° |
| 2026-05-04 05:06 | 33.70214 | -118.51261 | 11843 ft | 356 kts | 141° |
| 2026-05-04 05:06 | 33.68693 | -118.48834 | 12286 ft | 378 kts | 119° |
| 2026-05-04 05:06 | 33.67773 | -118.45852 | 13003 ft | 385 kts | 112° |
| 2026-05-04 05:07 | 33.66919 | -118.42787 | 13689 ft | 390 kts | 112° |
| 2026-05-04 05:07 | 33.66045 | -118.39741 | 14327 ft | 395 kts | 114° |
| 2026-05-04 05:07 | 33.65166 | -118.36565 | 14870 ft | 405 kts | 110° |
| 2026-05-04 05:09 | 33.71543 | -118.11157 | 19205 ft | 452 kts | 28° |
| 2026-05-04 05:09 | 33.74188 | -118.09022 | 19792 ft | 455 kts | 29° |
| 2026-05-04 05:10 | 33.76794 | -118.06850 | 20330 ft | 461 kts | 31° |
| 2026-05-04 05:10 | 33.79400 | -118.04588 | 20853 ft | 465 kts | 31° |
| 2026-05-04 05:10 | 33.81996 | -118.02278 | 21418 ft | 469 kts | 32° |
| 2026-05-04 05:10 | 33.84603 | -117.99932 | 21892 ft | 474 kts | 32° |
| 2026-05-04 05:11 | 33.87248 | -117.97547 | 22374 ft | 478 kts | 31° |
| 2026-05-04 05:11 | 33.89932 | -117.95127 | 22854 ft | 483 kts | 32° |
| 2026-05-04 05:11 | 33.92606 | -117.92703 | 23349 ft | 486 kts | 32° |
| 2026-05-04 05:11 | 33.95312 | -117.90226 | 23981 ft | 484 kts | 31° |
| 2026-05-04 05:12 | 33.97971 | -117.87786 | 24609 ft | 483 kts | 31° |
| 2026-05-04 05:12 | 34.00645 | -117.85336 | 25165 ft | 483 kts | 31° |
| 2026-05-04 05:12 | 34.03306 | -117.82899 | 25731 ft | 483 kts | 31° |
| 2026-05-04 05:12 | 34.05999 | -117.80433 | 26179 ft | 487 kts | 31° |
| 2026-05-04 05:13 | 34.08594 | -117.77790 | 26610 ft | 494 kts | 37° |
| 2026-05-04 05:13 | 34.11014 | -117.74822 | 26941 ft | 501 kts | 44° |
| 2026-05-04 05:13 | 34.13262 | -117.71604 | 26995 ft | 503 kts | 47° |
| 2026-05-04 05:13 | 34.15456 | -117.68294 | 27002 ft | 504 kts | 48° |
| 2026-05-04 05:14 | 34.17627 | -117.64981 | 27012 ft | 504 kts | 47° |
| 2026-05-04 05:14 | 34.19789 | -117.61700 | 27011 ft | 503 kts | 46° |
| 2026-05-04 05:14 | 34.21971 | -117.58424 | 27000 ft | 502 kts | 47° |
| 2026-05-04 05:14 | 34.24189 | -117.55122 | 26998 ft | 503 kts | 47° |
| 2026-05-04 05:15 | 34.26405 | -117.51831 | 26995 ft | 505 kts | 47° |
| 2026-05-04 05:15 | 34.28611 | -117.48544 | 26991 ft | 504 kts | 48° |
| 2026-05-04 05:15 | 34.30815 | -117.45250 | 26990 ft | 504 kts | 46° |
| 2026-05-04 05:15 | 34.33008 | -117.41964 | 26983 ft | 503 kts | 47° |
| 2026-05-04 05:16 | 34.35197 | -117.38688 | 26987 ft | 509 kts | 47° |
| 2026-05-04 05:16 | 34.37442 | -117.35339 | 26966 ft | 511 kts | 46° |
| 2026-05-04 05:16 | 34.39690 | -117.31981 | 26964 ft | 524 kts | 47° |
| 2026-05-04 05:16 | 34.42031 | -117.28476 | 26964 ft | 534 kts | 48° |
| 2026-05-04 05:17 | 34.44377 | -117.24976 | 26964 ft | 539 kts | 48° |
| 2026-05-04 05:17 | 34.46720 | -117.21439 | 26965 ft | 541 kts | 49° |
| 2026-05-04 05:17 | 34.49092 | -117.17859 | 26967 ft | 539 kts | 49° |
| 2026-05-04 05:17 | 34.51415 | -117.14370 | 26959 ft | 539 kts | 49° |
| 2026-05-04 05:18 | 34.53761 | -117.10811 | 26954 ft | 540 kts | 48° |
| 2026-05-04 05:18 | 34.56123 | -117.07304 | 26948 ft | 538 kts | 47° |
| 2026-05-04 05:18 | 34.58530 | -117.03807 | 26954 ft | 538 kts | 47° |
| 2026-05-04 05:18 | 34.60918 | -117.00350 | 26952 ft | 538 kts | 47° |
| 2026-05-04 05:19 | 34.63317 | -116.96873 | 26946 ft | 538 kts | 47° |
| 2026-05-04 05:19 | 34.65714 | -116.93376 | 26942 ft | 537 kts | 46° |
| 2026-05-04 05:19 | 34.68081 | -116.89917 | 26932 ft | 535 kts | 47° |
| 2026-05-04 05:19 | 34.70482 | -116.86413 | 26936 ft | 536 kts | 46° |
| 2026-05-04 05:20 | 34.72852 | -116.82949 | 26929 ft | 535 kts | 47° |
| 2026-05-04 05:20 | 34.75229 | -116.79470 | 26936 ft | 535 kts | 48° |
| 2026-05-04 05:20 | 34.77594 | -116.76000 | 26931 ft | 534 kts | 47° |
| 2026-05-04 05:20 | 34.79964 | -116.72513 | 26934 ft | 535 kts | 47° |
| 2026-05-04 05:21 | 34.82328 | -116.69033 | 26932 ft | 534 kts | 46° |
| 2026-05-04 05:21 | 34.84782 | -116.65649 | 26924 ft | 531 kts | 43° |
| 2026-05-04 05:21 | 34.87394 | -116.62558 | 26926 ft | 527 kts | 36° |
| 2026-05-04 05:21 | 34.90185 | -116.59718 | 26923 ft | 526 kts | 34° |
| 2026-05-04 05:22 | 34.93058 | -116.56968 | 26916 ft | 525 kts | 32° |
| 2026-05-04 05:22 | 34.95947 | -116.54221 | 26906 ft | 522 kts | 33° |
| 2026-05-04 05:22 | 34.98792 | -116.51508 | 26902 ft | 524 kts | 33° |
| 2026-05-04 05:22 | 35.01677 | -116.48732 | 26894 ft | 525 kts | 33° |
| 2026-05-04 05:23 | 35.04507 | -116.45985 | 26887 ft | 524 kts | 33° |
| 2026-05-04 05:23 | 35.07365 | -116.43204 | 26883 ft | 523 kts | 34° |
| 2026-05-04 05:23 | 35.10118 | -116.40350 | 26880 ft | 525 kts | 37° |
| 2026-05-04 05:23 | 35.12752 | -116.37239 | 26875 ft | 525 kts | 42° |
| 2026-05-04 05:24 | 35.15276 | -116.34010 | 26871 ft | 528 kts | 44° |
| 2026-05-04 05:24 | 35.17795 | -116.30699 | 26832 ft | 528 kts | 43° |
| 2026-05-04 05:24 | 35.20275 | -116.27445 | 26607 ft | 528 kts | 44° |
| 2026-05-04 05:24 | 35.22779 | -116.24175 | 26190 ft | 530 kts | 44° |
| 2026-05-04 05:25 | 35.25247 | -116.20867 | 25608 ft | 527 kts | 45° |
| 2026-05-04 05:25 | 35.27670 | -116.17535 | 24900 ft | 525 kts | 46° |
| 2026-05-04 05:25 | 35.30100 | -116.14164 | 24168 ft | 523 kts | 46° |
| 2026-05-04 05:25 | 35.32476 | -116.10891 | 23373 ft | 522 kts | 46° |
| 2026-05-04 05:26 | 35.34902 | -116.07564 | 22533 ft | 522 kts | 46° |
| 2026-05-04 05:26 | 35.37287 | -116.04288 | 21785 ft | 520 kts | 46° |
| 2026-05-04 05:26 | 35.39698 | -116.00968 | 20970 ft | 517 kts | 46° |
| 2026-05-04 05:26 | 35.42057 | -115.97723 | 20289 ft | 512 kts | 47° |
| 2026-05-04 05:27 | 35.44427 | -115.94460 | 19454 ft | 509 kts | 47° |
| 2026-05-04 05:28 | 35.59993 | -115.72936 | 16033 ft | 457 kts | 49° |
| 2026-05-04 05:29 | 35.62095 | -115.70095 | 16042 ft | 435 kts | 48° |
| 2026-05-04 05:29 | 35.64084 | -115.67419 | 16057 ft | 414 kts | 48° |
| 2026-05-04 05:29 | 35.65964 | -115.64889 | 16074 ft | 395 kts | 49° |
| 2026-05-04 05:29 | 35.67766 | -115.62456 | 16074 ft | 377 kts | 49° |
| 2026-05-04 05:31 | 35.81105 | -115.49762 | 15313 ft | 346 kts | 29° |
| 2026-05-04 05:31 | 35.83203 | -115.48315 | 14973 ft | 342 kts | 30° |
| 2026-05-04 05:32 | 35.85243 | -115.46895 | 14629 ft | 339 kts | 31° |
| 2026-05-04 05:32 | 35.87283 | -115.45467 | 14281 ft | 336 kts | 31° |
| 2026-05-04 05:32 | 35.89318 | -115.44037 | 13931 ft | 333 kts | 31° |
| 2026-05-04 05:33 | 35.93309 | -115.41241 | 13242 ft | 328 kts | 31° |
| 2026-05-04 05:33 | 35.95279 | -115.39866 | 12902 ft | 324 kts | 31° |
| 2026-05-04 05:33 | 35.97241 | -115.38496 | 12550 ft | 322 kts | 32° |
| 2026-05-04 05:33 | 35.99169 | -115.37148 | 12190 ft | 319 kts | 33° |
| 2026-05-04 05:34 | 36.00837 | -115.35412 | 11810 ft | 309 kts | 59° |
| 2026-05-04 05:34 | 36.01584 | -115.33026 | 11463 ft | 295 kts | 89° |
| 2026-05-04 05:34 | 36.01522 | -115.30549 | 11137 ft | 287 kts | 100° |
| 2026-05-04 05:34 | 36.01345 | -115.28107 | 10782 ft | 286 kts | 100° |
| 2026-05-04 05:35 | 36.01179 | -115.25652 | 10419 ft | 285 kts | 99° |
| 2026-05-04 05:35 | 36.01038 | -115.23241 | 10071 ft | 285 kts | 99° |
| 2026-05-04 05:35 | 36.00908 | -115.20788 | 9721 ft | 284 kts | 99° |
| 2026-05-04 05:35 | 36.00786 | -115.18393 | 9585 ft | 273 kts | 99° |
| 2026-05-04 05:36 | 36.00672 | -115.16136 | 9523 ft | 260 kts | 99° |
| 2026-05-04 05:36 | 36.00565 | -115.13948 | 9446 ft | 248 kts | 99° |
| 2026-05-04 05:36 | 36.00460 | -115.11864 | 9367 ft | 243 kts | 100° |
| 2026-05-04 05:36 | 36.00353 | -115.09778 | 9220 ft | 244 kts | 99° |
| 2026-05-04 05:37 | 36.00244 | -115.07700 | 8908 ft | 244 kts | 99° |
| 2026-05-04 05:37 | 36.00132 | -115.05598 | 8602 ft | 243 kts | 99° |
| 2026-05-04 05:37 | 36.00026 | -115.03545 | 8311 ft | 242 kts | 98° |
| 2026-05-04 05:38 | 35.99888 | -114.99432 | 7824 ft | 236 kts | 96° |
| 2026-05-04 05:38 | 35.99874 | -114.97388 | 7419 ft | 240 kts | 95° |
| 2026-05-04 05:38 | 35.99870 | -114.95316 | 7015 ft | 244 kts | 95° |
| 2026-05-04 05:38 | 35.99921 | -114.93219 | 6709 ft | 245 kts | 83° |
| 2026-05-04 05:39 | 36.00660 | -114.91350 | 6391 ft | 252 kts | 46° |
| 2026-05-04 05:39 | 36.03782 | -114.89454 | 5712 ft | 252 kts | 357° |
| 2026-05-04 05:39 | 36.05413 | -114.90006 | 5416 ft | 241 kts | 324° |
| 2026-05-04 05:40 | 36.07778 | -114.92720 | 4857 ft | 225 kts | 284° |
| 2026-05-04 05:40 | 36.07883 | -114.94523 | 4803 ft | 205 kts | 259° |
| 2026-05-04 05:40 | 36.07655 | -114.96187 | 4788 ft | 190 kts | 257° |
| 2026-05-04 05:41 | 36.07472 | -114.97817 | 4438 ft | 190 kts | 262° |
| 2026-05-04 05:41 | 36.07398 | -114.99390 | 4135 ft | 180 kts | 265° |
| 2026-05-04 05:41 | 36.07384 | -115.00874 | 3865 ft | 165 kts | 266° |
| 2026-05-04 05:41 | 36.07386 | -115.02209 | 3712 ft | 146 kts | 266° |
| 2026-05-04 05:42 | 36.07387 | -115.03411 | 3471 ft | 136 kts | 266° |
| 2026-05-04 05:42 | 36.07383 | -115.04578 | 3274 ft | 135 kts | 266° |
| 2026-05-04 05:42 | 36.07379 | -115.05727 | 3111 ft | 135 kts | 266° |
| 2026-05-04 05:42 | 36.07375 | -115.06889 | 2944 ft | 134 kts | 267° |
| 2026-05-04 05:43 | 36.07373 | -115.08044 | 2773 ft | 134 kts | 266° |
| 2026-05-04 05:43 | 36.07371 | -115.09206 | 2601 ft | 134 kts | 266° |
| 2026-05-04 05:43 | 36.07371 | -115.10363 | 2433 ft | 135 kts | 266° |
| 2026-05-04 05:45 | 36.07720 | -115.15243 | 2135 ft | 24 kts | 337° |
| 2026-05-04 05:45 | 36.07854 | -115.15308 | 2134 ft | 15 kts | 22° |